Terminal Aerodrome Forecast
Issued by NWS

Home | Current Version | Previous Version | Text Only | Print | Product List | Glossary On
Versions: 1 2 3 4 5 6 7 8 9 10 11 12 13 14 15 16 17 18 19
000
FTUS45 KTFX 270525
TAFHLN
TAF
KHLN 270525Z 2706/2806 26006KT P6SM SCT070
     FM270900 VRB03KT P6SM VCFG FEW010 SCT080
      TEMPO 2710/2714 2SM BR BKN008
     FM271500 VRB06KT P6SM SKC=

USA.gov is the U.S. government's official web portal to all federal, state and local government web resources and services.